createdAt,value
2019-02-08T00:01:19.104Z,1.70
2019-02-08T00:04:20.020Z,1.60
2019-02-08T00:07:27.474Z,1.57
2019-02-08T00:10:29.386Z,1.53
2019-02-08T00:13:23.458Z,1.60
2019-02-08T00:16:24.809Z,2.23
2019-02-08T00:19:18.718Z,1.90
2019-02-08T00:22:21.412Z,1.70
2019-02-08T00:25:19.334Z,1.67
2019-02-08T00:28:20.714Z,1.90
2019-02-08T00:31:15.297Z,1.63
2019-02-08T00:34:16.478Z,1.60
2019-02-08T00:37:10.622Z,1.73
2019-02-08T00:40:13.936Z,1.73
2019-02-08T00:43:07.800Z,1.60
2019-02-08T00:46:09.012Z,1.77
2019-02-08T00:49:06.012Z,1.73
2019-02-08T00:52:07.082Z,1.57
2019-02-08T00:55:01.512Z,1.80
2019-02-08T00:58:03.035Z,1.80
2019-02-08T01:01:18.690Z,1.90
2019-02-08T01:04:19.494Z,1.57
2019-02-08T01:07:13.892Z,1.50
2019-02-08T01:10:14.812Z,1.60
2019-02-08T01:13:08.477Z,1.27
2019-02-08T01:16:09.599Z,1.47
2019-02-08T01:19:03.340Z,1.93
2019-02-08T01:22:04.068Z,1.70
2019-02-08T01:25:06.261Z,1.37
2019-02-08T01:28:01.268Z,1.37
2019-02-08T01:30:55.595Z,1.43
2019-02-08T01:33:56.865Z,1.40
2019-02-08T01:36:50.992Z,1.50
2019-02-08T01:39:53.359Z,1.50
2019-02-08T01:42:53.958Z,1.20
2019-02-08T01:45:47.668Z,1.60
2019-02-08T01:48:44.058Z,1.40
2019-02-08T01:51:45.350Z,1.60
2019-02-08T01:54:39.422Z,1.60
2019-02-08T01:57:40.271Z,1.37
2019-02-08T02:00:49.687Z,1.53
2019-02-08T02:03:50.819Z,1.70
2019-02-08T02:06:44.496Z,1.43
2019-02-08T02:09:46.154Z,1.30
2019-02-08T02:12:40.362Z,1.57
2019-02-08T02:15:41.725Z,1.27
2019-02-08T02:18:36.087Z,1.60
2019-02-08T02:21:37.636Z,1.50
2019-02-08T02:24:31.515Z,1.50
2019-02-08T02:27:32.550Z,1.03
2019-02-08T02:30:28.243Z,1.70
2019-02-08T02:33:29.541Z,1.33
2019-02-08T02:36:23.506Z,1.50
2019-02-08T02:39:24.903Z,1.17
2019-02-08T02:42:19.242Z,1.30
2019-02-08T02:45:21.701Z,1.57
2019-02-08T02:48:17.081Z,1.63
2019-02-08T02:51:18.433Z,1.20
2019-02-08T02:54:13.017Z,1.57
2019-02-08T02:57:14.013Z,1.43
2019-02-08T03:00:07.719Z,1.10
2019-02-08T03:03:09.212Z,1.17
2019-02-08T03:06:03.060Z,1.40
2019-02-08T03:09:04.038Z,1.50
2019-02-08T03:11:57.600Z,1.50
2019-02-08T03:14:58.442Z,1.30
2019-02-08T03:17:52.005Z,1.33
2019-02-08T03:20:53.887Z,1.30
2019-02-08T03:23:47.393Z,1.27
2019-02-08T03:26:48.820Z,1.10
2019-02-08T03:29:42.716Z,1.37
2019-02-08T03:32:47.317Z,1.40
2019-02-08T03:35:41.935Z,1.27
2019-02-08T03:38:43.241Z,1.37
2019-02-08T03:41:37.578Z,1.40
2019-02-08T03:44:39.099Z,1.40
2019-02-08T03:47:33.331Z,1.13
2019-02-08T03:50:34.765Z,1.17
2019-02-08T03:53:28.449Z,1.40
2019-02-08T03:56:29.253Z,1.00
2019-02-08T03:59:36.667Z,1.43
2019-02-08T04:02:37.591Z,1.20
2019-02-08T04:05:30.859Z,1.30
2019-02-08T04:08:32.466Z,1.13
2019-02-08T04:11:26.897Z,1.27
2019-02-08T04:14:28.187Z,0.93
2019-02-08T04:17:22.553Z,1.10
2019-02-08T04:20:23.353Z,1.10
2019-02-08T04:23:17.869Z,1.30
2019-02-08T04:26:19.507Z,1.17
2019-02-08T04:29:13.713Z,1.27
2019-02-08T04:32:14.004Z,1.10
2019-02-08T04:35:07.783Z,1.20
2019-02-08T04:38:10.860Z,0.90
2019-02-08T04:41:04.304Z,1.07
2019-02-08T04:44:05.766Z,1.33
2019-02-08T04:46:59.689Z,1.30
2019-02-08T04:50:00.671Z,0.83
2019-02-08T04:52:54.619Z,1.10
2019-02-08T04:55:55.993Z,1.13
2019-02-08T04:58:51.097Z,1.23
2019-02-08T05:01:52.365Z,0.90
2019-02-08T05:04:45.782Z,1.00
2019-02-08T05:07:47.475Z,1.27
2019-02-08T05:10:41.809Z,1.10
2019-02-08T05:13:42.996Z,1.10
2019-02-08T05:16:37.382Z,1.00
2019-02-08T05:19:37.723Z,1.10
2019-02-08T05:22:31.935Z,1.13
2019-02-08T05:25:32.642Z,1.30
2019-02-08T05:28:26.859Z,1.03
2019-02-08T05:31:27.578Z,1.30
2019-02-08T05:34:22.047Z,1.17
2019-02-08T05:37:23.777Z,1.03
2019-02-08T05:40:19.193Z,1.00
2019-02-08T05:43:20.520Z,1.10
2019-02-08T05:46:13.862Z,1.10
2019-02-08T05:49:15.261Z,0.87
2019-02-08T05:52:10.827Z,0.90
2019-02-08T05:55:13.179Z,0.90
2019-02-08T05:58:08.621Z,1.00
2019-02-08T06:01:10.963Z,0.90
2019-02-08T06:04:18.543Z,1.03
2019-02-08T06:07:19.359Z,1.10
2019-02-08T06:10:14.809Z,1.10
2019-02-08T06:13:16.419Z,1.10
2019-02-08T06:16:10.092Z,1.10
2019-02-08T06:19:11.621Z,1.23
2019-02-08T06:22:05.454Z,0.80
2019-02-08T06:25:07.769Z,1.10
2019-02-08T06:28:01.454Z,0.90
2019-02-08T06:31:02.864Z,0.80
2019-02-08T06:33:56.956Z,0.97
2019-02-08T06:36:58.425Z,1.17
2019-02-08T06:39:52.972Z,0.70
2019-02-08T06:42:54.122Z,0.80
2019-02-08T06:45:49.115Z,0.70
2019-02-08T06:48:51.168Z,0.73
2019-02-08T06:51:44.663Z,0.70
2019-02-08T06:54:45.209Z,1.00
2019-02-08T06:57:40.822Z,0.57
2019-02-08T07:00:54.532Z,0.70
2019-02-08T07:03:49.731Z,0.60
2019-02-08T07:07:03.948Z,1.00
2019-02-08T07:10:05.916Z,0.90
2019-02-08T07:13:24.672Z,0.70
2019-02-08T07:16:22.840Z,0.90
2019-02-08T07:19:30.442Z,0.80
2019-02-08T07:22:25.516Z,0.90
2019-02-08T07:25:27.288Z,0.60
2019-02-08T07:28:38.556Z,0.70
2019-02-08T07:31:43.504Z,0.60
2019-02-08T07:34:57.839Z,0.47
2019-02-08T07:38:00.431Z,0.90
2019-02-08T07:41:06.494Z,0.63
2019-02-08T07:44:11.794Z,0.60
2019-02-08T07:47:13.930Z,0.57
2019-02-08T07:50:20.830Z,0.50
2019-02-08T07:53:19.853Z,0.40
2019-02-08T07:56:21.964Z,0.30
2019-02-08T07:59:32.474Z,0.50
2019-02-08T08:02:35.253Z,0.77
2019-02-08T08:05:30.469Z,0.60
2019-02-08T08:08:47.665Z,0.60
2019-02-08T08:11:42.928Z,0.50
2019-02-08T08:14:45.056Z,0.60
2019-02-08T08:17:43.930Z,0.40
2019-02-08T08:20:49.169Z,0.63
2019-02-08T08:23:47.267Z,0.63
2019-02-08T08:26:48.846Z,0.63
2019-02-08T08:29:48.042Z,0.50
2019-02-08T08:32:49.570Z,0.40
2019-02-08T08:35:45.089Z,0.57
2019-02-08T08:38:56.477Z,0.77
2019-02-08T08:42:08.773Z,0.40
2019-02-08T08:45:11.871Z,0.50
2019-02-08T08:48:10.302Z,0.60
2019-02-08T08:51:15.991Z,0.47
2019-02-08T08:54:17.380Z,0.43
2019-02-08T08:57:26.221Z,0.50
2019-02-08T09:00:31.508Z,0.57
2019-02-08T09:03:33.025Z,0.60
2019-02-08T09:06:45.791Z,0.43
2019-02-08T09:09:41.349Z,0.40
2019-02-08T09:12:42.990Z,0.40
2019-02-08T09:16:02.278Z,0.50
2019-02-08T09:19:20.328Z,0.40
2019-02-08T09:22:25.431Z,0.43
2019-02-08T09:25:24.243Z,0.40
2019-02-08T09:28:35.843Z,0.50
2019-02-08T09:31:31.201Z,0.40
2019-02-08T09:34:40.410Z,0.47
2019-02-08T09:37:41.621Z,0.40
2019-02-08T09:41:02.392Z,0.30
2019-02-08T09:44:16.564Z,0.30
2019-02-08T09:47:18.783Z,0.50
2019-02-08T09:50:23.383Z,0.30
2019-02-08T09:53:40.246Z,0.57
2019-02-08T09:56:38.165Z,0.50
2019-02-08T09:59:40.344Z,0.13
2019-02-08T10:03:05.749Z,0.40
2019-02-08T10:06:17.390Z,0.43
2019-02-08T10:09:15.798Z,0.30
2019-02-08T10:12:22.476Z,0.30
2019-02-08T10:15:33.556Z,0.30
2019-02-08T10:18:45.619Z,0.57
2019-02-08T10:21:46.623Z,0.20
2019-02-08T10:24:50.923Z,0.30
2019-02-08T10:27:46.644Z,0.23
2019-02-08T10:31:05.924Z,0.40
2019-02-08T10:34:07.435Z,0.27
2019-02-08T10:37:13.812Z,0.30
2019-02-08T10:40:24.591Z,0.33
2019-02-08T10:43:27.749Z,0.20
2019-02-08T10:46:29.386Z,0.37
2019-02-08T10:49:39.278Z,0.20
2019-02-08T10:52:52.668Z,0.40
2019-02-08T10:56:15.023Z,0.30
2019-02-08T10:59:25.699Z,0.20
2019-02-08T11:02:31.905Z,0.30
2019-02-08T11:05:59.423Z,0.30
2019-02-08T11:09:07.261Z,0.20
2019-02-08T11:12:19.525Z,0.43
2019-02-08T11:15:35.290Z,0.30
2019-02-08T11:18:49.210Z,0.50
2019-02-08T11:21:51.459Z,0.10
2019-02-08T11:24:45.356Z,0.20
2019-02-08T11:27:46.142Z,0.23
2019-02-08T11:30:39.565Z,0.30
2019-02-08T11:33:40.216Z,0.20
2019-02-08T11:36:33.957Z,0.20
2019-02-08T11:39:35.534Z,0.20
2019-02-08T11:42:29.956Z,0.10
2019-02-08T11:45:31.282Z,0.33
2019-02-08T11:48:25.009Z,0.23
2019-02-08T11:51:26.076Z,0.33
2019-02-08T11:54:20.402Z,0.10
2019-02-08T11:57:21.961Z,0.27
2019-02-08T12:00:25.075Z,0.30
2019-02-08T12:03:26.288Z,0.20
2019-02-08T12:06:27.724Z,0.23
2019-02-08T12:09:22.074Z,0.27
2019-02-08T12:12:15.610Z,0.70
2019-02-08T12:15:15.498Z,0.20
2019-02-08T12:18:10.772Z,0.53
2019-02-08T12:21:11.631Z,0.20
2019-02-08T12:24:11.843Z,0.20
2019-02-08T12:27:06.360Z,0.20
2019-02-08T12:30:00.550Z,0.23
2019-02-08T12:33:01.494Z,0.20
2019-02-08T12:35:55.698Z,0.30
2019-02-08T12:38:58.718Z,0.20
2019-02-08T12:41:59.924Z,0.20
2019-02-08T12:44:53.882Z,0.20
2019-02-08T12:47:48.012Z,0.30
2019-02-08T12:50:49.151Z,0.20
2019-02-08T12:53:42.972Z,0.20
2019-02-08T12:56:45.527Z,0.20
2019-02-08T12:59:52.184Z,0.20
2019-02-08T13:02:56.550Z,0.20
2019-02-08T13:05:50.449Z,0.20
2019-02-08T13:08:53.141Z,0.30
2019-02-08T13:11:50.536Z,0.20
2019-02-08T13:14:52.002Z,0.20
2019-02-08T13:17:45.819Z,0.20
2019-02-08T13:20:47.394Z,0.30
2019-02-08T13:23:41.834Z,0.20
2019-02-08T13:26:42.875Z,0.13
2019-02-08T13:29:37.703Z,0.17
2019-02-08T13:32:39.332Z,0.23
2019-02-08T13:35:33.781Z,0.30
2019-02-08T13:38:35.324Z,0.10
2019-02-08T13:41:29.411Z,0.30
2019-02-08T13:44:30.773Z,0.30
2019-02-08T13:47:31.523Z,0.33
2019-02-08T13:50:27.364Z,0.30
2019-02-08T13:53:21.600Z,0.40
2019-02-08T13:56:25.859Z,0.20
2019-02-08T13:59:20.143Z,0.30
2019-02-08T14:02:20.478Z,0.30
2019-02-08T14:05:21.483Z,0.20
2019-02-08T14:08:15.895Z,0.50
2019-02-08T14:11:10.092Z,0.20
2019-02-08T14:14:11.203Z,0.37
2019-02-08T14:17:08.328Z,0.20
2019-02-08T14:20:08.664Z,0.23
2019-02-08T14:23:11.067Z,0.20
2019-02-08T14:26:05.654Z,0.20
2019-02-08T14:29:06.064Z,0.10
2019-02-08T14:32:00.963Z,0.20
2019-02-08T14:34:54.788Z,0.20
2019-02-08T14:38:01.733Z,0.30
2019-02-08T14:41:02.562Z,0.30
2019-02-08T14:43:56.275Z,0.10
2019-02-08T14:46:50.050Z,0.37
2019-02-08T14:49:50.661Z,0.20
2019-02-08T14:52:45.355Z,0.13
2019-02-08T14:55:52.103Z,0.40
2019-02-08T14:58:52.193Z,0.30
2019-02-08T15:01:46.699Z,0.40
2019-02-08T15:04:41.230Z,0.20
2019-02-08T15:07:44.487Z,0.30
2019-02-08T15:10:50.796Z,0.30
2019-02-08T15:13:45.287Z,0.20
2019-02-08T15:16:39.036Z,0.27
2019-02-08T15:19:41.129Z,0.30
2019-02-08T15:22:35.655Z,0.17
2019-02-08T15:25:36.728Z,0.30
2019-02-08T15:28:43.712Z,0.20
2019-02-08T15:31:45.262Z,0.20
2019-02-08T15:34:46.860Z,0.20
2019-02-08T15:37:41.235Z,0.40
2019-02-08T15:40:37.184Z,0.20
2019-02-08T15:43:38.569Z,0.30
2019-02-08T15:46:39.231Z,0.13
2019-02-08T15:49:33.840Z,0.13
2019-02-08T15:52:27.705Z,0.20
2019-02-08T15:55:35.992Z,0.20
2019-02-08T15:58:43.004Z,0.20
2019-02-08T16:01:44.251Z,0.30
2019-02-08T16:04:37.755Z,0.40
2019-02-08T16:07:39.879Z,0.30
2019-02-08T16:10:34.258Z,0.33
2019-02-08T16:13:35.834Z,0.30
2019-02-08T16:16:29.331Z,0.37
2019-02-08T16:19:31.066Z,0.30
2019-02-08T16:22:24.484Z,0.30
2019-02-08T16:25:26.425Z,0.30
2019-02-08T16:28:23.224Z,0.30
2019-02-08T16:31:24.719Z,0.23
2019-02-08T16:34:19.159Z,0.30
2019-02-08T16:37:20.720Z,0.40
2019-02-08T16:40:15.909Z,0.30
2019-02-08T16:43:16.500Z,0.30
2019-02-08T16:46:12.652Z,0.30
2019-02-08T16:49:13.227Z,0.33
2019-02-08T16:52:07.192Z,0.20
2019-02-08T16:55:08.965Z,0.40
2019-02-08T16:58:03.513Z,0.30
2019-02-08T17:01:06.357Z,0.20
2019-02-08T17:04:00.578Z,0.40
2019-02-08T17:07:01.539Z,0.20
2019-02-08T17:09:56.441Z,0.20
2019-02-08T17:12:57.051Z,0.20
2019-02-08T17:15:51.113Z,0.20
2019-02-08T17:18:52.791Z,0.20
2019-02-08T17:21:47.459Z,0.30
2019-02-08T17:24:49.014Z,0.30
2019-02-08T17:27:43.457Z,0.30
2019-02-08T17:30:45.125Z,0.30
2019-02-08T17:33:39.073Z,0.30
2019-02-08T17:36:40.055Z,0.43
2019-02-08T17:39:34.584Z,0.43
2019-02-08T17:42:35.243Z,0.30
2019-02-08T17:45:29.360Z,0.40
2019-02-08T17:48:30.535Z,0.40
2019-02-08T17:51:24.830Z,0.30
2019-02-08T17:54:26.012Z,0.30
2019-02-08T17:57:20.199Z,0.30
2019-02-08T18:00:22.608Z,0.33
2019-02-08T18:03:26.156Z,0.53
2019-02-08T18:06:27.798Z,0.20
2019-02-08T18:09:22.368Z,0.30
2019-02-08T18:12:23.968Z,0.30
2019-02-08T18:15:19.166Z,0.30
2019-02-08T18:18:21.877Z,0.37
2019-02-08T18:21:15.514Z,0.80
2019-02-08T18:24:16.622Z,0.27
2019-02-08T18:27:10.226Z,0.27
2019-02-08T18:30:12.110Z,0.37
2019-02-08T18:33:06.782Z,0.57
2019-02-08T18:36:08.658Z,0.50
2019-02-08T18:39:12.051Z,0.30
2019-02-08T18:42:06.090Z,0.27
2019-02-08T18:45:00.670Z,0.17
2019-02-08T18:48:01.432Z,0.30
2019-02-08T18:51:08.785Z,0.40
2019-02-08T18:54:09.660Z,0.50
2019-02-08T18:57:03.820Z,0.60
2019-02-08T19:00:04.419Z,0.40
2019-02-08T19:03:00.384Z,0.40
2019-02-08T19:06:01.392Z,0.50
2019-02-08T19:08:55.758Z,0.60
2019-02-08T19:11:57.251Z,0.43
2019-02-08T19:14:51.986Z,0.60
2019-02-08T19:17:53.365Z,0.47
2019-02-08T19:20:49.388Z,0.60
2019-02-08T19:23:53.663Z,0.60
2019-02-08T19:26:47.903Z,0.33
2019-02-08T19:29:49.408Z,0.50
2019-02-08T19:32:42.697Z,0.50
2019-02-08T19:35:43.716Z,0.50
2019-02-08T19:38:38.839Z,0.50
2019-02-08T19:41:39.895Z,0.60
2019-02-08T19:44:33.978Z,0.40
2019-02-08T19:47:35.471Z,0.60
2019-02-08T19:50:32.535Z,0.43
2019-02-08T19:53:33.891Z,0.50
2019-02-08T19:56:27.426Z,0.70
2019-02-08T19:59:29.400Z,0.60
2019-02-08T20:02:25.517Z,0.33
2019-02-08T20:05:27.264Z,0.60
2019-02-08T20:08:21.583Z,0.53
2019-02-08T20:11:24.621Z,0.77
2019-02-08T20:14:19.277Z,0.50
2019-02-08T20:17:20.055Z,0.70
2019-02-08T20:20:15.281Z,0.80
2019-02-08T20:23:16.418Z,0.63
2019-02-08T20:26:11.064Z,0.47
2019-02-08T20:29:12.390Z,0.50
2019-02-08T20:32:06.293Z,0.50
2019-02-08T20:35:06.886Z,0.57
2019-02-08T20:38:01.221Z,0.60
2019-02-08T20:41:02.245Z,0.77
2019-02-08T20:44:11.520Z,0.70
2019-02-08T20:47:12.435Z,0.57
2019-02-08T20:50:08.252Z,0.80
2019-02-08T20:53:09.390Z,0.67
2019-02-08T20:56:03.029Z,0.57
2019-02-08T20:59:04.543Z,0.63
2019-02-08T21:01:59.063Z,0.50
2019-02-08T21:05:00.337Z,0.50
2019-02-08T21:07:54.524Z,0.70
2019-02-08T21:11:11.081Z,0.93
2019-02-08T21:14:11.935Z,0.70
2019-02-08T21:17:08.947Z,0.63
2019-02-08T21:20:02.614Z,0.93
2019-02-08T21:23:04.677Z,0.50
2019-02-08T21:25:58.822Z,0.57
2019-02-08T21:28:59.977Z,0.50
2019-02-08T21:32:00.253Z,0.77
2019-02-08T21:34:54.228Z,0.50
2019-02-08T21:37:48.911Z,0.80
2019-02-08T21:40:49.641Z,0.60
2019-02-08T21:43:46.027Z,0.70
2019-02-08T21:46:46.373Z,0.70
2019-02-08T21:49:46.635Z,0.60
2019-02-08T21:52:40.904Z,0.60
2019-02-08T21:55:34.811Z,0.77
2019-02-08T21:58:35.208Z,0.53
2019-02-08T22:01:28.449Z,0.70
2019-02-08T22:04:31.045Z,0.60
2019-02-08T22:07:38.095Z,0.80
2019-02-08T22:10:39.685Z,0.60
2019-02-08T22:13:33.959Z,0.50
2019-02-08T22:16:35.403Z,0.50
2019-02-08T22:19:29.939Z,0.43
2019-02-08T22:22:31.303Z,0.50
2019-02-08T22:25:26.727Z,0.60
2019-02-08T22:28:28.155Z,0.47
2019-02-08T22:31:22.277Z,0.30
2019-02-08T22:34:23.013Z,0.60
2019-02-08T22:37:16.713Z,0.30
2019-02-08T22:40:18.629Z,0.60
2019-02-08T22:43:12.981Z,0.50
2019-02-08T22:49:10.809Z,0.40
2019-02-08T22:52:11.637Z,0.40
2019-02-08T22:55:04.995Z,0.50
2019-02-08T22:58:05.535Z,0.50
2019-02-08T23:01:01.023Z,0.40
2019-02-08T23:04:01.857Z,0.50
2019-02-08T23:06:57.096Z,0.60
2019-02-08T23:09:57.786Z,0.50
2019-02-08T23:12:55.484Z,0.30
2019-02-08T23:15:56.933Z,0.63
2019-02-08T23:18:57.704Z,0.60
2019-02-08T23:21:51.451Z,0.53
2019-02-08T23:24:45.472Z,0.33
2019-02-08T23:27:46.175Z,0.43
2019-02-08T23:30:53.568Z,0.27
2019-02-08T23:33:54.569Z,0.43
2019-02-08T23:36:49.170Z,0.80
2019-02-08T23:39:50.612Z,0.60
2019-02-08T23:42:44.480Z,0.50
2019-02-08T23:45:46.244Z,0.67
2019-02-08T23:48:39.823Z,0.50
2019-02-08T23:51:40.813Z,0.50
2019-02-08T23:54:34.087Z,0.50
2019-02-08T23:57:35.951Z,0.33
